createdAt,value
2022-10-08T00:01:25.904Z,4.25
2022-10-08T00:03:55.584Z,6.38
2022-10-08T00:06:25.410Z,5.80
2022-10-08T00:08:56.657Z,4.85
2022-10-08T00:11:27.644Z,5.30
2022-10-08T00:13:56.547Z,4.88
2022-10-08T00:16:26.875Z,9.45
2022-10-08T00:18:56.327Z,6.60
2022-10-08T00:21:26.151Z,3.65
2022-10-08T00:23:55.737Z,7.10
2022-10-08T00:26:25.911Z,3.42
2022-10-08T00:28:56.229Z,5.78
2022-10-08T00:31:26.848Z,6.00
2022-10-08T00:33:56.587Z,6.38
2022-10-08T00:36:26.350Z,6.15
2022-10-08T00:38:58.101Z,4.28
2022-10-08T00:41:28.337Z,5.47
2022-10-08T00:43:58.014Z,5.32
2022-10-08T00:46:30.248Z,5.00
2022-10-08T00:49:02.918Z,9.50
2022-10-08T00:51:33.126Z,8.63
2022-10-08T00:54:03.977Z,3.85
2022-10-08T00:56:34.585Z,4.72
2022-10-08T00:59:03.008Z,5.97
2022-10-08T01:01:30.900Z,4.43
2022-10-08T01:04:00.185Z,4.75
2022-10-08T01:06:31.001Z,3.85
2022-10-08T01:09:06.460Z,6.22
2022-10-08T01:11:49.052Z,6.40
2022-10-08T01:14:30.056Z,4.95
2022-10-08T01:17:07.310Z,6.72
2022-10-08T01:19:55.961Z,5.60
2022-10-08T01:22:41.366Z,3.83
2022-10-08T01:25:34.639Z,5.03
2022-10-08T01:28:21.855Z,6.28
2022-10-08T01:30:56.341Z,4.82
2022-10-08T01:33:28.073Z,4.20
2022-10-08T01:35:59.607Z,3.30
2022-10-08T01:38:31.569Z,5.45
2022-10-08T01:41:03.784Z,4.70
2022-10-08T01:43:36.792Z,6.07
2022-10-08T01:46:09.516Z,3.85
2022-10-08T01:48:41.129Z,4.38
2022-10-08T01:51:15.113Z,3.50
2022-10-08T01:53:46.988Z,4.68
2022-10-08T01:56:20.925Z,5.95
2022-10-08T01:58:54.447Z,3.95
2022-10-08T02:01:28.836Z,3.83
2022-10-08T02:04:14.318Z,10.45
2022-10-08T02:06:46.052Z,6.72
2022-10-08T02:09:14.054Z,5.85
2022-10-08T02:11:41.953Z,4.63
2022-10-08T02:14:11.872Z,7.32
2022-10-08T02:16:52.335Z,4.43
2022-10-08T02:19:29.819Z,4.03
2022-10-08T02:22:02.556Z,4.20
2022-10-08T02:24:37.829Z,4.57
2022-10-08T02:27:09.366Z,5.88
2022-10-08T02:29:44.279Z,6.18
2022-10-08T02:32:18.630Z,5.97
2022-10-08T02:34:51.790Z,8.30
2022-10-08T02:37:25.503Z,6.53
2022-10-08T02:40:00.682Z,4.68
2022-10-08T02:42:32.133Z,5.95
2022-10-08T02:45:07.534Z,5.07
2022-10-08T02:47:38.761Z,6.03
2022-10-08T02:50:12.325Z,3.45
2022-10-08T02:52:44.407Z,6.10
2022-10-08T02:55:20.182Z,4.25
2022-10-08T02:57:55.774Z,4.07
2022-10-08T03:00:25.897Z,5.57
2022-10-08T03:02:59.462Z,4.50
2022-10-08T03:05:29.025Z,4.47
2022-10-08T03:07:58.486Z,2.85
2022-10-08T03:10:30.486Z,3.13
2022-10-08T03:13:01.939Z,2.72
2022-10-08T03:15:33.270Z,3.17
2022-10-08T03:18:03.513Z,4.90
2022-10-08T03:20:33.052Z,4.05
2022-10-08T03:23:02.733Z,6.60
2022-10-08T03:25:30.585Z,4.78
2022-10-08T03:27:58.511Z,3.92
2022-10-08T03:30:26.425Z,2.65
2022-10-08T03:32:55.749Z,3.83
2022-10-08T03:35:23.596Z,3.42
2022-10-08T03:37:53.113Z,3.53
2022-10-08T03:40:21.294Z,3.85
2022-10-08T03:42:49.577Z,3.22
2022-10-08T03:45:17.631Z,5.40
2022-10-08T03:47:45.513Z,2.08
2022-10-08T03:50:14.788Z,2.95
2022-10-08T03:52:42.692Z,2.83
2022-10-08T03:55:10.936Z,3.55
2022-10-08T03:57:38.797Z,2.40
2022-10-08T04:00:07.725Z,4.72
2022-10-08T04:02:35.723Z,5.95
2022-10-08T04:05:03.633Z,2.97
2022-10-08T04:07:32.945Z,2.42
2022-10-08T04:10:00.798Z,3.05
2022-10-08T04:12:30.033Z,2.92
2022-10-08T04:14:57.897Z,2.58
2022-10-08T04:17:25.825Z,3.25
2022-10-08T04:19:53.722Z,3.05
2022-10-08T04:22:21.623Z,3.13
2022-10-08T04:24:50.866Z,2.63
2022-10-08T04:27:18.750Z,2.53
2022-10-08T04:29:46.606Z,1.55
2022-10-08T04:32:14.461Z,4.13
2022-10-08T04:34:42.310Z,3.00
2022-10-08T04:37:10.181Z,2.15
2022-10-08T04:39:38.012Z,3.20
2022-10-08T04:42:07.365Z,4.68
2022-10-08T04:44:35.258Z,1.92
2022-10-08T04:47:03.125Z,1.83
2022-10-08T04:49:30.986Z,2.45
2022-10-08T04:51:58.856Z,1.38
2022-10-08T04:54:27.197Z,2.30
2022-10-08T04:56:55.240Z,2.30
2022-10-08T04:59:24.517Z,3.75
2022-10-08T05:01:52.991Z,2.03
2022-10-08T05:04:20.942Z,1.33
2022-10-08T05:06:48.861Z,2.30
2022-10-08T05:09:16.925Z,3.58
2022-10-08T05:11:44.803Z,1.35
2022-10-08T05:14:12.701Z,2.88
2022-10-08T05:16:41.932Z,2.28
2022-10-08T05:19:10.149Z,1.70
2022-10-08T05:21:38.063Z,3.13
2022-10-08T05:24:08.177Z,3.72
2022-10-08T05:26:57.549Z,1.00
2022-10-08T05:29:26.481Z,1.95
2022-10-08T05:31:55.755Z,2.88
2022-10-08T05:34:24.056Z,2.28
2022-10-08T05:36:51.925Z,2.15
2022-10-08T05:39:19.814Z,2.83
2022-10-08T05:41:47.694Z,4.70
2022-10-08T05:44:15.604Z,2.42
2022-10-08T05:46:43.585Z,3.78
2022-10-08T05:49:18.837Z,1.52
2022-10-08T05:51:46.913Z,0.88
2022-10-08T05:54:15.174Z,1.05
2022-10-08T05:56:43.446Z,1.85
2022-10-08T05:59:16.949Z,1.63
2022-10-08T06:01:45.249Z,1.63
2022-10-08T06:04:15.254Z,1.48
2022-10-08T06:06:44.476Z,1.50
2022-10-08T06:09:14.379Z,2.60
2022-10-08T06:11:43.556Z,1.70
2022-10-08T06:14:12.742Z,2.13
2022-10-08T06:16:41.357Z,0.80
2022-10-08T06:19:10.160Z,0.98
2022-10-08T06:21:39.440Z,1.88
2022-10-08T06:24:09.693Z,1.33
2022-10-08T06:26:38.857Z,3.63
2022-10-08T06:29:07.711Z,0.82
2022-10-08T06:31:36.392Z,2.00
2022-10-08T06:34:05.182Z,0.82
2022-10-08T06:36:34.643Z,1.35
2022-10-08T06:39:07.161Z,2.78
2022-10-08T06:41:35.795Z,2.75
2022-10-08T06:44:05.175Z,1.48
2022-10-08T06:46:33.748Z,2.17
2022-10-08T06:49:02.664Z,1.63
2022-10-08T06:51:31.278Z,2.55
2022-10-08T06:54:06.983Z,2.53
2022-10-08T06:56:38.567Z,2.60
2022-10-08T06:59:07.322Z,1.58
2022-10-08T07:01:36.147Z,1.30
2022-10-08T07:04:05.662Z,2.53
2022-10-08T07:06:33.846Z,1.30
2022-10-08T07:09:03.141Z,2.40
2022-10-08T07:11:32.397Z,1.25
2022-10-08T07:14:01.917Z,2.55
2022-10-08T07:16:29.898Z,3.28
2022-10-08T07:18:58.865Z,0.70
2022-10-08T07:21:27.508Z,5.72
2022-10-08T07:23:55.679Z,1.63
2022-10-08T07:26:24.874Z,3.38
2022-10-08T07:28:55.372Z,1.67
2022-10-08T07:31:28.076Z,2.17
2022-10-08T07:33:56.355Z,2.92
2022-10-08T07:36:25.783Z,2.45
2022-10-08T07:38:57.509Z,2.97
2022-10-08T07:41:26.177Z,1.63
2022-10-08T07:43:55.384Z,2.95
2022-10-08T07:46:24.641Z,2.53
2022-10-08T07:48:54.749Z,3.55
2022-10-08T07:51:22.637Z,5.55
2022-10-08T07:53:50.864Z,3.20
2022-10-08T07:56:20.733Z,6.43
2022-10-08T07:58:49.625Z,4.97
2022-10-08T08:01:21.205Z,4.35
2022-10-08T08:03:55.607Z,4.10
2022-10-08T08:06:25.190Z,5.68
2022-10-08T08:08:53.569Z,6.93
2022-10-08T08:11:23.535Z,3.80
2022-10-08T08:13:52.192Z,3.67
2022-10-08T08:16:21.683Z,3.78
2022-10-08T08:18:51.397Z,4.30
2022-10-08T08:21:22.649Z,3.78
2022-10-08T08:23:53.381Z,4.00
2022-10-08T08:26:25.076Z,3.28
2022-10-08T08:28:54.314Z,4.88
2022-10-08T08:31:25.224Z,5.38
2022-10-08T08:33:54.967Z,5.22
2022-10-08T08:36:28.777Z,3.45
2022-10-08T08:38:57.861Z,3.53
2022-10-08T08:41:39.513Z,4.78
2022-10-08T08:44:12.419Z,4.18
2022-10-08T08:46:44.580Z,4.95
2022-10-08T08:49:20.963Z,5.07
2022-10-08T08:51:50.353Z,4.18
2022-10-08T08:54:18.298Z,4.78
2022-10-08T08:56:46.361Z,3.72
2022-10-08T08:59:25.482Z,6.40
2022-10-08T09:01:57.251Z,2.28
2022-10-08T09:04:32.978Z,5.68
2022-10-08T09:07:06.305Z,4.65
2022-10-08T09:09:41.039Z,4.43
2022-10-08T09:12:20.786Z,8.38
2022-10-08T09:14:54.467Z,5.55
2022-10-08T09:17:29.307Z,6.60
2022-10-08T09:19:57.409Z,4.35
2022-10-08T09:22:29.621Z,3.88
2022-10-08T09:25:01.245Z,4.57
2022-10-08T09:27:44.931Z,5.72
2022-10-08T09:30:31.449Z,8.18
2022-10-08T09:33:01.519Z,4.90
2022-10-08T09:35:29.472Z,6.28
2022-10-08T09:38:02.170Z,2.78
2022-10-08T09:40:33.578Z,4.57
2022-10-08T09:43:11.792Z,3.65
2022-10-08T09:45:41.534Z,4.22
2022-10-08T09:48:21.564Z,5.22
2022-10-08T09:50:56.293Z,3.50
2022-10-08T09:53:29.515Z,4.95
2022-10-08T09:56:00.515Z,4.25
2022-10-08T09:58:32.298Z,4.00
2022-10-08T10:01:06.820Z,4.53
2022-10-08T10:03:36.441Z,4.68
2022-10-08T10:06:04.786Z,5.75
2022-10-08T10:08:51.592Z,3.70
2022-10-08T10:11:26.789Z,3.78
2022-10-08T10:13:57.234Z,6.22
2022-10-08T10:16:28.156Z,3.72
2022-10-08T10:19:00.603Z,3.80
2022-10-08T10:21:36.900Z,6.38
2022-10-08T10:24:29.173Z,2.97
2022-10-08T10:27:00.892Z,4.45
2022-10-08T10:29:38.721Z,7.15
2022-10-08T10:32:14.554Z,5.30
2022-10-08T10:34:46.854Z,2.58
2022-10-08T10:37:20.129Z,2.90
2022-10-08T10:39:53.782Z,5.95
2022-10-08T10:42:31.016Z,7.43
2022-10-08T10:45:04.473Z,4.45
2022-10-08T10:47:33.349Z,4.10
2022-10-08T10:50:02.822Z,8.13
2022-10-08T10:52:45.599Z,3.70
2022-10-08T10:55:23.576Z,8.32
2022-10-08T10:58:22.519Z,5.55
2022-10-08T11:00:58.385Z,5.30
2022-10-08T11:03:36.249Z,6.03
2022-10-08T11:06:22.569Z,4.70
2022-10-08T11:08:57.145Z,3.10
2022-10-08T11:11:33.462Z,5.30
2022-10-08T11:14:36.821Z,3.58
2022-10-08T11:17:18.669Z,5.63
2022-10-08T11:19:57.443Z,4.30
2022-10-08T11:22:34.181Z,6.00
2022-10-08T11:25:20.833Z,2.80
2022-10-08T11:28:02.233Z,5.85
2022-10-08T11:30:45.352Z,5.75
2022-10-08T11:33:16.494Z,2.88
2022-10-08T11:35:51.099Z,8.68
2022-10-08T11:38:26.115Z,7.00
2022-10-08T11:41:00.262Z,161.68
2022-10-08T11:43:38.314Z,560.20
2022-10-08T11:46:29.550Z,742.15
2022-10-08T11:52:14.936Z,417.05
2022-10-08T11:54:43.032Z,302.67
2022-10-08T11:57:20.296Z,253.15
2022-10-08T11:59:56.858Z,171.00
2022-10-08T12:02:28.086Z,146.02
2022-10-08T12:04:58.488Z,110.88
2022-10-08T12:07:31.788Z,92.43
2022-10-08T12:10:30.051Z,75.40
2022-10-08T12:13:29.741Z,64.28
2022-10-08T12:16:07.961Z,49.83
2022-10-08T12:18:54.202Z,52.03
2022-10-08T12:21:52.395Z,41.72
2022-10-08T12:24:53.840Z,32.72
2022-10-08T12:27:23.836Z,41.50
2022-10-08T12:29:55.713Z,35.35
2022-10-08T12:32:26.264Z,30.58
2022-10-08T12:34:54.396Z,33.13
2022-10-08T12:37:46.626Z,25.58
2022-10-08T12:40:25.061Z,25.00
2022-10-08T12:43:09.106Z,23.25
2022-10-08T12:45:49.064Z,22.90
2022-10-08T12:48:32.068Z,19.92
2022-10-08T12:51:10.284Z,21.02
2022-10-08T12:53:38.542Z,21.00
2022-10-08T12:56:06.514Z,15.00
2022-10-08T12:58:37.709Z,13.98
2022-10-08T13:01:07.023Z,16.05
2022-10-08T13:03:36.408Z,13.18
2022-10-08T13:06:17.098Z,14.02
2022-10-08T13:08:45.064Z,12.55
2022-10-08T13:11:15.274Z,10.68
2022-10-08T13:13:45.981Z,8.70
2022-10-08T13:16:16.113Z,9.85
2022-10-08T13:18:47.356Z,10.45
2022-10-08T13:21:36.722Z,10.65
2022-10-08T13:24:20.989Z,9.85
2022-10-08T13:26:50.786Z,8.68
2022-10-08T13:29:30.224Z,8.20
2022-10-08T13:32:00.268Z,9.00
2022-10-08T13:34:31.976Z,8.85
2022-10-08T13:37:02.954Z,7.85
2022-10-08T13:39:34.323Z,6.80
2022-10-08T13:42:08.153Z,7.75
2022-10-08T13:44:38.236Z,6.63
2022-10-08T13:47:06.396Z,8.63
2022-10-08T13:49:36.140Z,6.57
2022-10-08T13:52:04.248Z,6.05
2022-10-08T13:54:34.530Z,4.40
2022-10-08T13:57:02.857Z,5.70
2022-10-08T13:59:31.135Z,5.70
2022-10-08T14:01:59.106Z,5.38
2022-10-08T14:04:27.014Z,4.97
2022-10-08T14:06:58.847Z,5.13
2022-10-08T14:09:30.283Z,4.22
2022-10-08T14:12:01.338Z,6.20
2022-10-08T14:14:29.646Z,7.00
2022-10-08T14:16:57.581Z,6.40
2022-10-08T14:19:25.562Z,8.02
2022-10-08T14:21:57.748Z,11.43
2022-10-08T14:24:25.665Z,11.45
2022-10-08T14:26:53.534Z,10.48
2022-10-08T14:29:21.561Z,12.85
2022-10-08T14:31:49.482Z,15.23
2022-10-08T14:34:17.600Z,8.27
2022-10-08T14:36:45.571Z,13.35
2022-10-08T14:39:14.816Z,10.30
2022-10-08T14:41:44.302Z,7.68
2022-10-08T14:44:13.325Z,5.65
2022-10-08T14:46:41.202Z,9.85
2022-10-08T14:49:09.085Z,10.57
2022-10-08T14:51:38.760Z,7.82
2022-10-08T14:54:07.310Z,6.45
2022-10-08T14:56:43.912Z,6.53
2022-10-08T14:59:12.323Z,4.15
2022-10-08T15:01:40.838Z,4.72
2022-10-08T15:04:09.024Z,6.65
2022-10-08T15:06:38.133Z,5.90
2022-10-08T15:09:06.343Z,10.48
2022-10-08T15:11:34.228Z,5.78
2022-10-08T15:14:03.530Z,5.65
2022-10-08T15:16:31.542Z,4.97
2022-10-08T15:18:59.558Z,6.35
2022-10-08T15:21:27.549Z,4.22
2022-10-08T15:23:56.981Z,4.40
2022-10-08T15:26:24.973Z,3.15
2022-10-08T15:28:53.695Z,3.78
2022-10-08T15:31:25.128Z,4.78
2022-10-08T15:34:01.890Z,3.80
2022-10-08T15:36:31.511Z,4.25
2022-10-08T15:39:01.145Z,2.90
2022-10-08T15:41:30.422Z,4.45
2022-10-08T15:44:09.398Z,3.50
2022-10-08T15:46:39.018Z,2.65
2022-10-08T15:49:06.952Z,6.88
2022-10-08T15:51:34.985Z,3.05
2022-10-08T15:54:03.113Z,4.95
2022-10-08T15:56:31.592Z,3.88
2022-10-08T15:59:00.125Z,4.05
2022-10-08T16:01:29.603Z,3.80
2022-10-08T16:04:00.172Z,4.93
2022-10-08T16:06:29.847Z,3.53
2022-10-08T16:09:03.204Z,2.88
2022-10-08T16:11:32.746Z,2.20
2022-10-08T16:14:02.537Z,3.00
2022-10-08T16:16:31.085Z,3.63
2022-10-08T16:19:02.193Z,3.50
2022-10-08T16:21:31.906Z,2.60
2022-10-08T16:24:00.762Z,3.17
2022-10-08T16:26:31.754Z,3.65
2022-10-08T16:29:01.140Z,5.25
2022-10-08T16:31:30.467Z,3.25
2022-10-08T16:34:01.486Z,4.53
2022-10-08T16:36:31.500Z,3.50
2022-10-08T16:38:59.646Z,4.15
2022-10-08T16:41:29.791Z,2.47
2022-10-08T16:44:00.029Z,3.17
2022-10-08T16:46:30.484Z,2.78
2022-10-08T16:49:01.744Z,6.78
2022-10-08T16:51:32.105Z,2.75
2022-10-08T16:54:01.918Z,5.40
2022-10-08T16:56:31.398Z,3.30
2022-10-08T16:59:01.273Z,4.00
2022-10-08T17:01:29.703Z,4.82
2022-10-08T17:03:58.329Z,3.92
2022-10-08T17:06:29.219Z,3.97
2022-10-08T17:08:58.283Z,3.72
2022-10-08T17:11:26.620Z,2.97
2022-10-08T17:13:56.683Z,1.85
2022-10-08T17:16:27.770Z,1.80
2022-10-08T17:18:57.812Z,4.70
2022-10-08T17:21:27.629Z,5.05
2022-10-08T17:23:58.369Z,3.47
2022-10-08T17:26:28.653Z,2.90
2022-10-08T17:28:57.257Z,3.33
2022-10-08T17:31:27.300Z,7.45
2022-10-08T17:33:55.176Z,4.70
2022-10-08T17:36:25.885Z,3.65
2022-10-08T17:38:57.307Z,3.38
2022-10-08T17:41:27.346Z,5.75
2022-10-08T17:43:57.042Z,3.95
2022-10-08T17:46:26.517Z,5.30
2022-10-08T17:48:55.075Z,5.53
2022-10-08T17:51:25.164Z,3.75
2022-10-08T17:53:55.960Z,3.88
2022-10-08T17:56:24.680Z,9.80
2022-10-08T17:58:52.655Z,4.65
2022-10-08T18:01:22.325Z,4.18
2022-10-08T18:03:52.261Z,5.40
2022-10-08T18:06:20.926Z,6.65
2022-10-08T18:08:49.060Z,4.18
2022-10-08T18:11:18.317Z,7.22
2022-10-08T18:13:46.329Z,2.80
2022-10-08T18:16:15.802Z,3.33
2022-10-08T18:18:45.565Z,3.60
2022-10-08T18:21:14.668Z,4.43
2022-10-08T18:23:43.114Z,6.00
2022-10-08T18:26:16.052Z,6.22
2022-10-08T18:28:45.629Z,3.08
2022-10-08T18:31:15.029Z,2.90
2022-10-08T18:33:44.665Z,5.25
2022-10-08T18:36:14.414Z,4.28
2022-10-08T18:38:43.953Z,3.00
2022-10-08T18:41:13.772Z,3.15
2022-10-08T18:43:41.773Z,3.70
2022-10-08T18:46:11.704Z,2.33
2022-10-08T18:48:39.785Z,3.25
2022-10-08T18:51:09.436Z,2.28
2022-10-08T18:53:39.982Z,3.95
2022-10-08T18:56:09.858Z,7.07
2022-10-08T18:58:38.137Z,2.95
2022-10-08T19:01:07.227Z,5.15
2022-10-08T19:03:36.567Z,3.90
2022-10-08T19:06:08.097Z,3.70
2022-10-08T19:08:36.226Z,4.85
2022-10-08T19:11:10.758Z,10.30
2022-10-08T19:13:38.772Z,6.10
2022-10-08T19:16:13.251Z,3.83
2022-10-08T19:18:44.291Z,4.93
2022-10-08T19:21:14.219Z,5.35
2022-10-08T19:23:42.255Z,5.95
2022-10-08T19:26:10.458Z,4.70
2022-10-08T19:28:39.814Z,4.53
2022-10-08T19:31:15.818Z,3.83
2022-10-08T19:33:49.831Z,5.32
2022-10-08T19:36:18.596Z,2.83
2022-10-08T19:38:52.428Z,14.43
2022-10-08T19:41:21.066Z,5.95
2022-10-08T19:43:51.755Z,7.38
2022-10-08T19:46:20.694Z,5.28
2022-10-08T19:48:51.168Z,5.82
2022-10-08T19:51:19.998Z,4.65
2022-10-08T19:53:51.518Z,4.35
2022-10-08T19:56:21.845Z,4.82
2022-10-08T19:58:53.275Z,3.28
2022-10-08T20:01:23.550Z,3.88
2022-10-08T20:03:55.976Z,3.30
2022-10-08T20:06:26.092Z,3.00
2022-10-08T20:08:54.670Z,3.15
2022-10-08T20:11:22.939Z,5.22
2022-10-08T20:13:53.492Z,4.90
2022-10-08T20:16:23.268Z,6.68
2022-10-08T20:18:52.655Z,3.65
2022-10-08T20:21:23.038Z,4.57
2022-10-08T20:23:51.067Z,3.50
2022-10-08T20:26:20.825Z,4.38
2022-10-08T20:28:50.737Z,5.05
2022-10-08T20:31:20.792Z,4.35
2022-10-08T20:33:49.556Z,4.82
2022-10-08T20:36:18.397Z,3.00
2022-10-08T20:38:47.706Z,5.20
2022-10-08T20:41:15.590Z,6.57
2022-10-08T20:43:43.848Z,1.98
2022-10-08T20:46:13.622Z,3.88
2022-10-08T20:48:44.435Z,2.78
2022-10-08T20:51:14.985Z,4.32
2022-10-08T20:53:49.269Z,3.03
2022-10-08T20:56:18.322Z,4.22
2022-10-08T20:58:46.926Z,4.63
2022-10-08T21:01:17.810Z,3.15
2022-10-08T21:03:46.909Z,3.55
2022-10-08T21:06:16.949Z,3.53
2022-10-08T21:08:46.549Z,4.70
2022-10-08T21:11:17.652Z,3.03
2022-10-08T21:13:46.125Z,5.05
2022-10-08T21:16:16.272Z,2.10
2022-10-08T21:18:46.125Z,3.00
2022-10-08T21:21:15.768Z,4.15
2022-10-08T21:23:43.931Z,3.20
2022-10-08T21:26:16.389Z,4.55
2022-10-08T21:28:48.564Z,2.58
2022-10-08T21:31:17.675Z,3.17
2022-10-08T21:33:47.142Z,3.05
2022-10-08T21:36:17.242Z,5.78
2022-10-08T21:38:45.702Z,2.55
2022-10-08T21:41:17.040Z,3.13
2022-10-08T21:43:46.768Z,3.97
2022-10-08T21:46:16.446Z,2.95
2022-10-08T21:48:44.981Z,3.10
2022-10-08T21:51:15.185Z,4.22
2022-10-08T21:53:46.657Z,3.88
2022-10-08T21:56:19.373Z,4.32
2022-10-08T21:58:49.042Z,4.22
2022-10-08T22:01:23.140Z,7.80
2022-10-08T22:03:55.391Z,5.82
2022-10-08T22:06:23.778Z,2.05
2022-10-08T22:08:52.452Z,4.57
2022-10-08T22:11:22.030Z,3.85
2022-10-08T22:13:50.501Z,3.53
2022-10-08T22:16:21.077Z,4.70
2022-10-08T22:18:49.464Z,3.17
2022-10-08T22:21:19.291Z,3.05
2022-10-08T22:23:47.788Z,2.13
2022-10-08T22:26:17.611Z,2.45
2022-10-08T22:28:47.334Z,2.45
2022-10-08T22:31:17.067Z,3.53
2022-10-08T22:33:45.025Z,2.00
2022-10-08T22:36:15.483Z,2.85
2022-10-08T22:38:44.644Z,2.40
2022-10-08T22:41:14.770Z,2.65
2022-10-08T22:43:43.003Z,0.98
2022-10-08T22:46:16.973Z,2.63
2022-10-08T22:48:45.842Z,2.03
2022-10-08T22:51:15.640Z,2.30
2022-10-08T22:53:43.700Z,2.33
2022-10-08T22:56:13.678Z,0.98
2022-10-08T22:58:41.622Z,3.13
2022-10-08T23:01:11.592Z,2.20
2022-10-08T23:03:41.507Z,3.17
2022-10-08T23:06:14.613Z,1.25
2022-10-08T23:08:42.979Z,2.60
2022-10-08T23:11:11.516Z,2.67
2022-10-08T23:13:39.662Z,1.77
2022-10-08T23:16:09.807Z,1.38
2022-10-08T23:18:41.217Z,1.95
2022-10-08T23:21:12.330Z,1.38
2022-10-08T23:23:40.987Z,1.77
2022-10-08T23:26:10.055Z,1.95
2022-10-08T23:28:39.415Z,1.73
2022-10-08T23:31:10.216Z,1.58
2022-10-08T23:33:42.081Z,0.98
2022-10-08T23:36:11.058Z,2.63
2022-10-08T23:38:39.182Z,2.83
2022-10-08T23:41:09.384Z,1.20
2022-10-08T23:43:39.189Z,2.47
2022-10-08T23:46:08.538Z,1.73
2022-10-08T23:48:36.783Z,2.13
2022-10-08T23:51:07.150Z,1.48
2022-10-08T23:53:36.090Z,1.75
2022-10-08T23:56:04.476Z,1.83
2022-10-08T23:58:32.909Z,1.50
